createdAt,value
2023-01-13T00:01:14.131Z,2.00
2023-01-13T00:03:41.612Z,2.20
2023-01-13T00:06:12.548Z,2.03
2023-01-13T00:08:39.107Z,2.27
2023-01-13T00:11:05.733Z,2.70
2023-01-13T00:13:33.682Z,1.97
2023-01-13T00:16:05.152Z,2.00
2023-01-13T00:18:33.099Z,2.30
2023-01-13T00:21:21.119Z,2.20
2023-01-13T00:23:48.307Z,2.20
2023-01-13T00:26:17.642Z,2.10
2023-01-13T00:28:44.224Z,1.70
2023-01-13T00:31:13.680Z,2.27
2023-01-13T00:33:40.791Z,1.87
2023-01-13T00:36:10.624Z,1.77
2023-01-13T00:38:38.893Z,1.63
2023-01-13T00:41:07.940Z,3.20
2023-01-13T00:43:36.186Z,1.40
2023-01-13T00:46:05.008Z,1.60
2023-01-13T00:48:32.692Z,1.27
2023-01-13T00:51:02.060Z,1.47
2023-01-13T00:53:29.917Z,1.27
2023-01-13T00:56:04.597Z,1.50
2023-01-13T00:58:33.135Z,1.00
2023-01-13T01:01:04.465Z,1.10
2023-01-13T01:03:31.364Z,1.27
2023-01-13T01:06:05.362Z,1.47
2023-01-13T01:08:32.070Z,1.10
2023-01-13T01:11:13.595Z,1.70
2023-01-13T01:13:40.628Z,1.37
2023-01-13T01:16:09.382Z,1.30
2023-01-13T01:18:38.199Z,1.30
2023-01-13T01:21:06.050Z,1.77
2023-01-13T01:23:33.692Z,1.87
2023-01-13T01:26:05.986Z,1.93
2023-01-13T01:28:33.607Z,2.07
2023-01-13T01:31:00.420Z,1.50
2023-01-13T01:33:26.959Z,1.87
2023-01-13T01:35:54.724Z,1.97
2023-01-13T01:38:23.350Z,2.07
2023-01-13T01:40:50.042Z,2.00
2023-01-13T01:43:37.471Z,2.20
2023-01-13T01:46:04.732Z,2.00
2023-01-13T01:48:38.178Z,3.00
2023-01-13T01:51:09.184Z,2.83
2023-01-13T01:53:35.898Z,1.90
2023-01-13T01:56:03.510Z,2.30
2023-01-13T01:58:37.570Z,2.40
2023-01-13T02:01:04.574Z,2.50
2023-01-13T02:03:31.367Z,2.07
2023-01-13T02:05:58.044Z,1.73
2023-01-13T02:08:25.089Z,2.50
2023-01-13T02:10:54.242Z,2.90
2023-01-13T02:13:22.622Z,2.20
2023-01-13T02:15:58.414Z,2.30
2023-01-13T02:18:44.289Z,2.20
2023-01-13T02:21:32.772Z,2.00
2023-01-13T02:24:42.622Z,2.67
2023-01-13T02:27:44.150Z,2.50
2023-01-13T02:30:59.304Z,3.00
2023-01-13T02:33:34.592Z,2.50
2023-01-13T02:36:27.160Z,2.80
2023-01-13T02:39:00.941Z,2.90
2023-01-13T02:41:52.750Z,3.00
2023-01-13T02:44:25.567Z,2.87
2023-01-13T02:46:59.556Z,2.53
2023-01-13T02:49:30.323Z,2.57
2023-01-13T02:52:06.143Z,3.10
2023-01-13T02:54:35.368Z,2.80
2023-01-13T02:57:03.520Z,2.90
2023-01-13T02:59:31.500Z,3.13
2023-01-13T03:01:59.796Z,2.70
2023-01-13T03:04:48.255Z,3.23
2023-01-13T03:07:41.243Z,2.57
2023-01-13T03:10:22.380Z,2.80
2023-01-13T03:13:20.332Z,2.83
2023-01-13T03:16:11.916Z,3.40
2023-01-13T03:19:05.712Z,3.00
2023-01-13T03:21:52.215Z,2.40
2023-01-13T03:24:21.344Z,2.00
2023-01-13T03:27:15.095Z,3.00
2023-01-13T03:29:58.848Z,3.23
2023-01-13T03:32:30.960Z,2.70
2023-01-13T03:35:07.478Z,2.97
2023-01-13T03:37:38.555Z,3.63
2023-01-13T03:40:13.983Z,3.20
2023-01-13T03:43:03.207Z,3.20
2023-01-13T03:45:32.747Z,3.60
2023-01-13T03:48:01.099Z,4.13
2023-01-13T03:50:37.233Z,4.10
2023-01-13T03:53:10.322Z,4.43
2023-01-13T03:55:43.868Z,3.70
2023-01-13T03:58:27.625Z,3.70
2023-01-13T04:01:05.825Z,4.17
2023-01-13T04:03:40.799Z,4.73
2023-01-13T04:06:18.355Z,4.20
2023-01-13T04:08:52.840Z,4.93
2023-01-13T04:11:27.992Z,4.27
2023-01-13T04:13:56.065Z,4.80
2023-01-13T04:16:22.664Z,5.20
2023-01-13T04:18:50.055Z,3.80
2023-01-13T04:21:16.408Z,3.40
2023-01-13T04:23:42.888Z,3.53
2023-01-13T04:26:09.213Z,2.90
2023-01-13T04:28:35.619Z,3.63
2023-01-13T04:31:01.969Z,3.50
2023-01-13T04:33:28.502Z,3.50
2023-01-13T04:35:55.135Z,3.50
2023-01-13T04:38:22.045Z,3.60
2023-01-13T04:40:48.660Z,3.90
2023-01-13T04:43:15.984Z,4.50
2023-01-13T04:45:42.973Z,3.80
2023-01-13T04:48:10.106Z,3.40
2023-01-13T04:50:36.637Z,4.47
2023-01-13T04:53:03.279Z,3.43
2023-01-13T04:55:29.822Z,3.93
2023-01-13T04:58:01.975Z,4.00
2023-01-13T05:00:28.333Z,3.90
2023-01-13T05:02:54.875Z,4.07
2023-01-13T05:05:21.216Z,5.13
2023-01-13T05:07:47.580Z,4.20
2023-01-13T05:10:14.424Z,3.60
2023-01-13T05:12:59.698Z,3.87
2023-01-13T05:15:44.643Z,2.97
2023-01-13T05:18:11.704Z,4.10
2023-01-13T05:20:38.303Z,4.67
2023-01-13T05:23:23.606Z,4.73
2023-01-13T05:25:50.053Z,4.70
2023-01-13T05:28:16.518Z,3.80
2023-01-13T05:30:45.977Z,3.30
2023-01-13T05:33:17.973Z,4.20
2023-01-13T05:35:46.005Z,3.40
2023-01-13T05:38:13.582Z,3.90
2023-01-13T05:41:06.882Z,3.70
2023-01-13T05:43:34.812Z,4.50
2023-01-13T05:46:05.788Z,4.13
2023-01-13T05:48:34.875Z,4.33
2023-01-13T05:51:03.157Z,4.00
2023-01-13T05:53:29.839Z,4.37
2023-01-13T05:55:56.500Z,3.53
2023-01-13T05:58:25.786Z,5.43
2023-01-13T06:00:52.621Z,3.87
2023-01-13T06:03:20.176Z,4.77
2023-01-13T06:05:47.599Z,4.50
2023-01-13T06:08:14.130Z,3.50
2023-01-13T06:10:40.508Z,4.20
2023-01-13T06:13:07.040Z,3.30
2023-01-13T06:15:33.406Z,4.33
2023-01-13T06:18:02.609Z,3.40
2023-01-13T06:20:29.037Z,4.00
2023-01-13T06:22:55.610Z,3.43
2023-01-13T06:25:34.077Z,4.20
2023-01-13T06:28:00.638Z,4.07
2023-01-13T06:30:31.376Z,4.30
2023-01-13T06:32:59.480Z,3.60
2023-01-13T06:35:31.793Z,3.90
2023-01-13T06:38:01.447Z,3.50
2023-01-13T06:40:28.085Z,3.93
2023-01-13T06:43:16.542Z,4.60
2023-01-13T06:45:50.905Z,3.90
2023-01-13T06:48:18.853Z,4.67
2023-01-13T06:50:45.218Z,4.07
2023-01-13T06:53:11.598Z,4.10
2023-01-13T06:55:37.964Z,3.97
2023-01-13T06:58:04.808Z,3.30
2023-01-13T07:00:32.667Z,4.50
2023-01-13T07:03:12.587Z,3.97
2023-01-13T07:05:40.214Z,4.53
2023-01-13T07:08:07.163Z,5.13
2023-01-13T07:10:34.829Z,3.80
2023-01-13T07:13:21.889Z,3.53
2023-01-13T07:15:59.402Z,3.70
2023-01-13T07:18:27.667Z,4.17
2023-01-13T07:20:56.054Z,3.83
2023-01-13T07:23:22.761Z,4.70
2023-01-13T07:25:49.262Z,4.17
2023-01-13T07:28:15.866Z,3.80
2023-01-13T07:30:42.258Z,3.83
2023-01-13T07:33:08.609Z,3.90
2023-01-13T07:35:35.178Z,4.23
2023-01-13T07:38:01.503Z,4.23
2023-01-13T07:40:27.914Z,3.80
2023-01-13T07:43:13.042Z,4.87
2023-01-13T07:45:39.545Z,4.47
2023-01-13T07:48:06.016Z,5.87
2023-01-13T07:50:32.462Z,4.80
2023-01-13T07:52:59.007Z,4.00
2023-01-13T07:55:25.465Z,3.50
2023-01-13T07:57:51.790Z,4.13
2023-01-13T08:00:18.748Z,3.90
2023-01-13T08:02:45.107Z,3.30
2023-01-13T08:05:11.551Z,4.53
2023-01-13T08:07:37.877Z,5.10
2023-01-13T08:10:04.533Z,3.47
2023-01-13T08:12:51.818Z,4.30
2023-01-13T08:15:22.088Z,4.37
2023-01-13T08:17:48.408Z,4.73
2023-01-13T08:20:15.074Z,3.77
2023-01-13T08:22:41.445Z,4.57
2023-01-13T08:25:08.315Z,3.73
2023-01-13T08:27:34.659Z,4.03
2023-01-13T08:30:01.077Z,3.47
2023-01-13T08:32:27.474Z,3.80
2023-01-13T08:34:53.995Z,4.00
2023-01-13T08:37:20.378Z,3.37
2023-01-13T08:39:46.775Z,4.33
2023-01-13T08:42:13.111Z,3.30
2023-01-13T08:44:39.482Z,4.70
2023-01-13T08:47:06.039Z,3.60
2023-01-13T08:49:32.503Z,3.80
2023-01-13T08:51:58.823Z,3.80
2023-01-13T08:54:25.234Z,5.50
2023-01-13T08:56:51.661Z,3.27
2023-01-13T08:59:19.760Z,3.13
2023-01-13T09:01:46.401Z,3.80
2023-01-13T09:04:19.793Z,3.70
2023-01-13T09:06:47.233Z,3.40
2023-01-13T09:09:13.709Z,4.20
2023-01-13T09:12:00.988Z,3.20
2023-01-13T09:14:32.057Z,2.77
2023-01-13T09:16:59.561Z,4.00
2023-01-13T09:19:27.050Z,3.33
2023-01-13T09:21:54.449Z,3.40
2023-01-13T09:24:21.208Z,3.30
2023-01-13T09:26:48.759Z,2.90
2023-01-13T09:29:15.545Z,3.87
2023-01-13T09:31:44.209Z,3.97
2023-01-13T09:34:37.973Z,2.80
2023-01-13T09:37:06.327Z,2.87
2023-01-13T09:39:33.728Z,3.43
2023-01-13T09:42:25.484Z,3.60
2023-01-13T09:45:05.835Z,2.63
2023-01-13T09:47:40.965Z,2.50
2023-01-13T09:50:23.776Z,3.87
2023-01-13T09:52:50.565Z,2.53
2023-01-13T09:55:22.628Z,2.70
2023-01-13T09:57:49.085Z,3.00
2023-01-13T10:00:24.059Z,2.37
2023-01-13T10:03:15.639Z,2.30
2023-01-13T10:05:50.747Z,3.13
2023-01-13T10:08:24.554Z,2.43
2023-01-13T10:10:59.641Z,2.90
2023-01-13T10:13:30.968Z,2.47
2023-01-13T10:16:22.591Z,2.30
2023-01-13T10:19:29.401Z,3.13
2023-01-13T10:22:43.555Z,2.57
2023-01-13T10:25:22.211Z,3.60
2023-01-13T10:27:50.674Z,2.90
2023-01-13T10:30:32.192Z,3.10
2023-01-13T10:33:01.344Z,2.30
2023-01-13T10:36:05.079Z,1.90
2023-01-13T10:38:34.439Z,2.50
2023-01-13T10:41:03.650Z,2.60
2023-01-13T10:43:30.705Z,3.80
2023-01-13T10:46:06.187Z,2.23
2023-01-13T10:48:51.181Z,3.30
2023-01-13T10:51:27.004Z,2.60
2023-01-13T10:54:15.362Z,2.43
2023-01-13T10:56:44.862Z,3.30
2023-01-13T10:59:24.823Z,3.03
2023-01-13T11:02:24.838Z,2.20
2023-01-13T11:05:02.966Z,2.80
2023-01-13T11:07:50.357Z,2.50
2023-01-13T11:10:27.424Z,2.93
2023-01-13T11:13:01.152Z,3.17
2023-01-13T11:15:43.512Z,3.03
2023-01-13T11:18:37.696Z,2.90
2023-01-13T11:21:14.584Z,2.73
2023-01-13T11:23:48.836Z,2.80
2023-01-13T11:26:23.789Z,2.67
2023-01-13T11:29:08.991Z,2.60
2023-01-13T11:31:43.677Z,3.30
2023-01-13T11:34:39.266Z,2.23
2023-01-13T11:37:27.842Z,2.67
2023-01-13T11:40:01.477Z,3.00
2023-01-13T11:42:36.642Z,2.30
2023-01-13T11:45:28.672Z,2.47
2023-01-13T11:47:58.217Z,2.80
2023-01-13T11:50:41.171Z,2.73
2023-01-13T11:53:21.298Z,2.60
2023-01-13T11:56:20.029Z,2.70
2023-01-13T11:59:24.063Z,2.73
2023-01-13T12:02:23.681Z,3.00
2023-01-13T12:05:01.840Z,2.50
2023-01-13T12:07:47.116Z,3.03
2023-01-13T12:10:41.496Z,3.07
2023-01-13T12:13:26.796Z,3.00
2023-01-13T12:16:07.964Z,3.17
2023-01-13T12:18:55.700Z,2.73
2023-01-13T12:21:29.650Z,2.63
2023-01-13T12:24:21.219Z,2.87
2023-01-13T12:26:55.599Z,3.30
2023-01-13T12:29:30.590Z,2.80
2023-01-13T12:31:59.953Z,3.33
2023-01-13T12:34:49.712Z,2.70
2023-01-13T12:37:37.205Z,3.50
2023-01-13T12:40:46.943Z,3.20
2023-01-13T12:43:42.806Z,3.10
2023-01-13T12:46:21.337Z,2.50
2023-01-13T12:48:57.247Z,3.23
2023-01-13T12:51:55.988Z,3.60
2023-01-13T12:54:37.591Z,2.30
2023-01-13T12:57:16.315Z,3.63
2023-01-13T13:00:05.753Z,2.77
2023-01-13T13:02:39.986Z,2.73
2023-01-13T13:05:15.643Z,3.30
2023-01-13T13:07:46.589Z,2.70
2023-01-13T13:10:34.085Z,3.17
2023-01-13T13:13:18.010Z,2.80
2023-01-13T13:15:49.421Z,3.30
2023-01-13T13:18:19.502Z,2.53
2023-01-13T13:20:57.064Z,2.50
2023-01-13T13:23:39.335Z,2.13
2023-01-13T13:26:24.680Z,2.47
2023-01-13T13:29:21.884Z,2.77
2023-01-13T13:32:14.085Z,2.43
2023-01-13T13:35:09.766Z,2.33
2023-01-13T13:38:16.473Z,2.50
2023-01-13T13:41:04.803Z,2.80
2023-01-13T13:43:56.541Z,2.47
2023-01-13T13:46:46.968Z,2.70
2023-01-13T13:49:20.036Z,2.27
2023-01-13T13:51:54.428Z,2.70
2023-01-13T13:54:22.727Z,2.53
2023-01-13T13:56:50.690Z,2.90
2023-01-13T13:59:24.557Z,2.47
2023-01-13T14:02:01.604Z,3.50
2023-01-13T14:04:31.215Z,2.70
2023-01-13T14:07:00.694Z,3.20
2023-01-13T14:09:39.491Z,2.50
2023-01-13T14:12:17.519Z,3.10
2023-01-13T14:14:44.556Z,2.83
2023-01-13T14:17:24.339Z,2.70
2023-01-13T14:19:59.271Z,2.80
2023-01-13T14:22:25.917Z,2.70
2023-01-13T14:24:57.550Z,3.83
2023-01-13T14:27:29.156Z,2.83
2023-01-13T14:29:58.791Z,2.67
2023-01-13T14:32:35.212Z,2.40
2023-01-13T14:35:01.977Z,3.17
2023-01-13T14:37:28.251Z,1.87
2023-01-13T14:39:54.730Z,2.40
2023-01-13T14:42:22.080Z,2.77
2023-01-13T14:44:51.771Z,2.80
2023-01-13T14:47:27.821Z,2.80
2023-01-13T14:50:06.361Z,2.60
2023-01-13T14:52:48.399Z,3.00
2023-01-13T14:55:30.029Z,3.03
2023-01-13T14:58:21.245Z,2.77
2023-01-13T15:00:48.777Z,2.17
2023-01-13T15:03:17.937Z,2.60
2023-01-13T15:05:52.377Z,2.10
2023-01-13T15:08:29.192Z,2.93
2023-01-13T15:11:01.054Z,2.20
2023-01-13T15:13:35.237Z,3.50
2023-01-13T15:16:05.702Z,2.70
2023-01-13T15:18:32.508Z,2.60
2023-01-13T15:20:58.876Z,2.00
2023-01-13T15:23:25.266Z,1.80
2023-01-13T15:25:51.782Z,1.30
2023-01-13T15:28:21.959Z,1.47
2023-01-13T15:30:49.625Z,1.30
2023-01-13T15:33:16.955Z,1.50
2023-01-13T15:35:49.095Z,1.30
2023-01-13T15:38:19.598Z,1.17
2023-01-13T15:40:47.538Z,1.90
2023-01-13T15:43:34.325Z,2.43
2023-01-13T15:46:21.143Z,1.60
2023-01-13T15:48:50.124Z,1.40
2023-01-13T15:51:21.176Z,1.60
2023-01-13T15:53:47.524Z,1.60
2023-01-13T15:56:25.341Z,1.80
2023-01-13T15:58:52.339Z,2.30
2023-01-13T16:01:18.806Z,1.57
2023-01-13T16:03:45.253Z,1.80
2023-01-13T16:06:18.294Z,1.90
2023-01-13T16:08:44.749Z,2.20
2023-01-13T16:11:12.139Z,1.87
2023-01-13T16:13:38.791Z,2.40
2023-01-13T16:16:17.931Z,1.90
2023-01-13T16:18:44.627Z,2.17
2023-01-13T16:21:12.998Z,1.90
2023-01-13T16:23:39.778Z,2.30
2023-01-13T16:26:13.088Z,2.47
2023-01-13T16:28:39.698Z,2.50
2023-01-13T16:31:23.525Z,2.20
2023-01-13T16:33:50.345Z,2.10
2023-01-13T16:36:18.275Z,2.63
2023-01-13T16:38:44.653Z,2.60
2023-01-13T16:41:11.065Z,2.50
2023-01-13T16:43:37.765Z,2.43
2023-01-13T16:46:24.607Z,1.80
2023-01-13T16:48:53.069Z,2.27
2023-01-13T16:51:21.101Z,1.80
2023-01-13T16:53:47.934Z,1.80
2023-01-13T16:56:22.307Z,1.93
2023-01-13T16:58:49.191Z,2.83
2023-01-13T17:01:21.533Z,1.60
2023-01-13T17:03:49.275Z,1.27
2023-01-13T17:06:17.381Z,2.03
2023-01-13T17:08:43.775Z,1.70
2023-01-13T17:11:10.213Z,1.93
2023-01-13T17:13:36.953Z,1.57
2023-01-13T17:16:03.382Z,2.17
2023-01-13T17:18:29.856Z,2.60
2023-01-13T17:20:58.013Z,2.40
2023-01-13T17:23:24.891Z,1.83
2023-01-13T17:25:54.658Z,2.40
2023-01-13T17:28:21.184Z,2.10
2023-01-13T17:30:47.905Z,2.10
2023-01-13T17:33:14.293Z,2.63
2023-01-13T17:35:40.737Z,2.07
2023-01-13T17:38:07.336Z,3.10
2023-01-13T17:40:33.723Z,2.40
2023-01-13T17:43:00.090Z,2.60
2023-01-13T17:45:26.793Z,2.13
2023-01-13T17:47:57.882Z,1.90
2023-01-13T17:50:24.643Z,1.70
2023-01-13T17:52:51.004Z,1.50
2023-01-13T17:55:17.338Z,2.17
2023-01-13T17:57:43.699Z,2.83
2023-01-13T18:00:12.064Z,1.63
2023-01-13T18:02:38.496Z,1.60
2023-01-13T18:05:05.132Z,1.80
2023-01-13T18:07:31.505Z,1.70
2023-01-13T18:09:57.826Z,2.80
2023-01-13T18:12:24.281Z,1.80
2023-01-13T18:14:50.606Z,2.67
2023-01-13T18:17:18.309Z,2.97
2023-01-13T18:20:03.366Z,2.57
2023-01-13T18:22:48.018Z,2.30
2023-01-13T18:25:32.914Z,1.97
2023-01-13T18:28:02.462Z,2.27
2023-01-13T18:30:28.821Z,2.20
2023-01-13T18:32:55.744Z,2.13
2023-01-13T18:35:22.097Z,2.20
2023-01-13T18:37:48.508Z,2.50
2023-01-13T18:40:14.880Z,2.37
2023-01-13T18:42:58.328Z,2.10
2023-01-13T18:45:27.453Z,1.70
2023-01-13T18:47:55.634Z,2.57
2023-01-13T18:50:22.984Z,1.57
2023-01-13T18:52:49.645Z,1.50
2023-01-13T18:55:16.121Z,1.53
2023-01-13T18:57:42.642Z,1.33
2023-01-13T19:00:15.757Z,1.70
2023-01-13T19:02:42.574Z,1.80
2023-01-13T19:05:09.927Z,1.70
2023-01-13T19:07:36.793Z,1.70
2023-01-13T19:10:04.573Z,2.50
2023-01-13T19:12:33.662Z,3.30
2023-01-13T19:15:01.780Z,2.43
2023-01-13T19:17:33.474Z,2.80
2023-01-13T19:20:00.481Z,1.53
2023-01-13T19:22:30.479Z,1.80
2023-01-13T19:24:57.791Z,2.17
2023-01-13T19:27:25.321Z,1.93
2023-01-13T19:29:53.592Z,1.93
2023-01-13T19:32:22.014Z,1.30
2023-01-13T19:34:50.623Z,1.60
2023-01-13T19:37:17.386Z,2.00
2023-01-13T19:39:43.794Z,3.00
2023-01-13T19:42:30.531Z,2.17
2023-01-13T19:45:16.435Z,2.30
2023-01-13T19:47:45.267Z,1.70
2023-01-13T19:50:13.517Z,1.80
2023-01-13T19:52:40.103Z,2.20
2023-01-13T19:55:06.848Z,2.70
2023-01-13T19:57:33.219Z,2.03
2023-01-13T19:59:59.544Z,1.67
2023-01-13T20:02:31.342Z,2.03
2023-01-13T20:05:00.657Z,1.40
2023-01-13T20:07:29.193Z,2.10
2023-01-13T20:09:58.766Z,1.57
2023-01-13T20:12:26.124Z,1.40
2023-01-13T20:14:52.815Z,2.00
2023-01-13T20:17:21.235Z,1.70
2023-01-13T20:19:47.814Z,1.33
2023-01-13T20:22:14.549Z,2.13
2023-01-13T20:24:40.950Z,1.30
2023-01-13T20:27:08.071Z,1.60
2023-01-13T20:29:34.974Z,1.67
2023-01-13T20:32:01.395Z,1.77
2023-01-13T20:34:27.876Z,1.20
2023-01-13T20:36:54.397Z,1.33
2023-01-13T20:39:24.801Z,1.57
2023-01-13T20:42:09.480Z,1.60
2023-01-13T20:44:35.796Z,1.37
2023-01-13T20:47:02.796Z,2.40
2023-01-13T20:49:38.387Z,1.83
2023-01-13T20:52:09.797Z,2.00
2023-01-13T20:54:37.550Z,1.83
2023-01-13T20:57:05.199Z,1.70
2023-01-13T20:59:31.638Z,2.27
2023-01-13T21:01:58.567Z,1.43
2023-01-13T21:04:25.527Z,2.27
2023-01-13T21:06:52.282Z,1.30
2023-01-13T21:09:19.075Z,1.67
2023-01-13T21:12:03.866Z,1.70
2023-01-13T21:14:48.578Z,1.70
2023-01-13T21:17:34.436Z,1.80
2023-01-13T21:20:01.630Z,2.33
2023-01-13T21:22:28.728Z,2.03
2023-01-13T21:24:55.524Z,1.50
2023-01-13T21:27:21.957Z,1.70
2023-01-13T21:29:48.288Z,2.77
2023-01-13T21:32:14.615Z,1.50
2023-01-13T21:34:41.081Z,1.90
2023-01-13T21:37:07.615Z,2.07
2023-01-13T21:39:34.015Z,1.57
2023-01-13T21:42:18.676Z,2.20
2023-01-13T21:45:03.377Z,1.73
2023-01-13T21:47:48.239Z,2.17
2023-01-13T21:50:28.547Z,2.03
2023-01-13T21:52:55.880Z,1.97
2023-01-13T21:55:25.297Z,2.60
2023-01-13T21:58:11.694Z,2.47
2023-01-13T22:00:39.366Z,2.10
2023-01-13T22:03:07.174Z,2.10
2023-01-13T22:05:33.749Z,2.30
2023-01-13T22:08:00.636Z,2.07
2023-01-13T22:10:29.812Z,2.37
2023-01-13T22:12:58.629Z,2.07
2023-01-13T22:15:27.983Z,2.23
2023-01-13T22:17:55.445Z,2.50
2023-01-13T22:20:22.357Z,2.30
2023-01-13T22:22:49.644Z,3.40
2023-01-13T22:25:17.009Z,1.83
2023-01-13T22:27:44.648Z,2.83
2023-01-13T22:30:14.096Z,3.50
2023-01-13T22:32:40.539Z,3.90
2023-01-13T22:35:09.210Z,1.90
2023-01-13T22:37:36.125Z,2.40
2023-01-13T22:40:04.203Z,2.00
2023-01-13T22:42:30.547Z,2.10
2023-01-13T22:44:56.905Z,2.10
2023-01-13T22:47:23.290Z,1.73
2023-01-13T22:49:49.691Z,2.07
2023-01-13T22:52:17.159Z,2.03
2023-01-13T22:54:43.945Z,2.60
2023-01-13T22:57:10.517Z,1.97
2023-01-13T22:59:36.942Z,2.07
2023-01-13T23:02:03.348Z,2.20
2023-01-13T23:04:29.786Z,1.87
2023-01-13T23:06:56.230Z,2.40
2023-01-13T23:09:22.723Z,2.20
2023-01-13T23:11:49.070Z,2.33
2023-01-13T23:14:15.495Z,2.03
2023-01-13T23:16:41.937Z,1.90
2023-01-13T23:19:08.388Z,2.13
2023-01-13T23:21:37.359Z,2.80
2023-01-13T23:24:05.896Z,2.27
2023-01-13T23:26:33.363Z,2.93
2023-01-13T23:29:06.353Z,2.90
2023-01-13T23:31:32.957Z,2.10
2023-01-13T23:33:59.484Z,2.40
2023-01-13T23:36:27.783Z,1.83
2023-01-13T23:38:54.629Z,2.07
2023-01-13T23:41:25.629Z,2.50
2023-01-13T23:43:54.078Z,3.20
2023-01-13T23:46:20.782Z,2.90
2023-01-13T23:48:47.788Z,2.20
2023-01-13T23:51:14.755Z,2.80
2023-01-13T23:53:44.501Z,2.50
2023-01-13T23:56:16.543Z,2.20
2023-01-13T23:58:43.772Z,2.20
